createdAt,value
2022-08-19T00:01:59.057Z,17.13
2022-08-19T00:04:31.937Z,17.58
2022-08-19T00:06:59.898Z,16.95
2022-08-19T00:09:28.026Z,15.85
2022-08-19T00:11:56.612Z,15.70
2022-08-19T00:14:25.596Z,18.17
2022-08-19T00:16:55.015Z,16.85
2022-08-19T00:19:23.647Z,17.25
2022-08-19T00:21:50.765Z,17.58
2022-08-19T00:24:17.621Z,16.77
2022-08-19T00:26:46.636Z,16.25
2022-08-19T00:29:17.113Z,16.60
2022-08-19T00:31:45.465Z,16.70
2022-08-19T00:34:13.736Z,16.95
2022-08-19T00:36:42.512Z,17.10
2022-08-19T00:39:10.368Z,17.02
2022-08-19T00:41:37.316Z,17.10
2022-08-19T00:44:14.646Z,17.55
2022-08-19T00:46:46.390Z,16.67
2022-08-19T00:49:33.646Z,16.85
2022-08-19T00:52:10.319Z,16.67
2022-08-19T00:54:40.002Z,16.65
2022-08-19T00:57:15.680Z,16.45
2022-08-19T01:00:00.993Z,16.33
2022-08-19T01:02:31.394Z,16.92
2022-08-19T01:04:59.969Z,17.45
2022-08-19T01:07:26.696Z,17.80
2022-08-19T01:09:53.437Z,17.77
2022-08-19T01:12:21.125Z,17.23
2022-08-19T01:14:48.869Z,16.92
2022-08-19T01:17:17.153Z,17.45
2022-08-19T01:19:47.663Z,17.55
2022-08-19T01:22:44.970Z,17.42
2022-08-19T01:25:15.066Z,15.98
2022-08-19T01:27:45.462Z,16.45
2022-08-19T01:30:23.376Z,17.17
2022-08-19T01:32:52.071Z,17.55
2022-08-19T01:35:20.290Z,17.80
2022-08-19T01:37:50.082Z,17.52
2022-08-19T01:40:17.838Z,15.90
2022-08-19T01:42:44.410Z,16.90
2022-08-19T01:45:11.283Z,17.25
2022-08-19T01:47:38.450Z,16.10
2022-08-19T01:50:08.179Z,16.88
2022-08-19T01:52:38.054Z,16.40
2022-08-19T01:55:09.306Z,17.13
2022-08-19T01:57:37.570Z,16.50
2022-08-19T02:00:09.712Z,17.05
2022-08-19T02:02:36.452Z,16.48
2022-08-19T02:05:04.350Z,17.25
2022-08-19T02:07:30.971Z,16.25
2022-08-19T02:09:58.315Z,16.33
2022-08-19T02:12:25.162Z,17.17
2022-08-19T02:14:51.662Z,17.20
2022-08-19T02:17:19.164Z,17.85
2022-08-19T02:19:45.684Z,17.60
2022-08-19T02:22:12.311Z,17.38
2022-08-19T02:24:39.886Z,17.27
2022-08-19T02:27:06.727Z,17.00
2022-08-19T02:29:33.355Z,17.52
2022-08-19T02:32:00.156Z,17.40
2022-08-19T02:34:26.692Z,18.50
2022-08-19T02:36:53.202Z,18.15
2022-08-19T02:39:20.243Z,17.98
2022-08-19T02:41:46.841Z,16.42
2022-08-19T02:44:29.422Z,18.80
2022-08-19T02:46:57.242Z,17.25
2022-08-19T02:49:23.779Z,18.15
2022-08-19T02:51:50.305Z,18.45
2022-08-19T02:54:16.895Z,18.48
2022-08-19T02:56:44.827Z,18.50
2022-08-19T02:59:12.567Z,17.85
2022-08-19T03:01:42.256Z,17.67
2022-08-19T03:04:14.286Z,16.63
2022-08-19T03:06:44.846Z,16.83
2022-08-19T03:09:12.167Z,16.92
2022-08-19T03:11:39.710Z,16.10
2022-08-19T03:14:08.877Z,17.33
2022-08-19T03:16:44.539Z,15.85
2022-08-19T03:19:11.195Z,16.23
2022-08-19T03:21:37.808Z,16.65
2022-08-19T03:24:09.470Z,16.50
2022-08-19T03:26:45.481Z,16.77
2022-08-19T03:29:13.160Z,16.60
2022-08-19T03:31:50.920Z,16.73
2022-08-19T03:34:29.610Z,16.40
2022-08-19T03:36:59.027Z,17.58
2022-08-19T03:39:26.562Z,17.13
2022-08-19T03:42:32.952Z,17.00
2022-08-19T03:44:45.883Z,16.80
2022-08-19T03:47:17.220Z,16.98
2022-08-19T03:49:44.087Z,17.02
2022-08-19T03:52:10.735Z,16.92
2022-08-19T03:54:39.270Z,17.67
2022-08-19T03:57:06.887Z,16.20
2022-08-19T03:59:37.076Z,17.75
2022-08-19T04:02:11.171Z,17.17
2022-08-19T04:04:44.629Z,16.17
2022-08-19T04:07:17.011Z,18.10
2022-08-19T04:09:43.746Z,17.55
2022-08-19T04:12:10.397Z,16.38
2022-08-19T04:14:37.263Z,16.05
2022-08-19T04:17:07.914Z,17.52
2022-08-19T04:19:37.393Z,15.25
2022-08-19T04:22:05.511Z,16.98
2022-08-19T04:24:32.894Z,17.67
2022-08-19T04:27:02.803Z,17.83
2022-08-19T04:29:30.976Z,17.90
2022-08-19T04:31:59.603Z,19.52
2022-08-19T04:34:30.430Z,18.75
2022-08-19T04:36:59.618Z,18.73
2022-08-19T04:39:49.731Z,19.40
2022-08-19T04:42:37.266Z,18.80
2022-08-19T04:45:12.470Z,18.58
2022-08-19T04:47:48.283Z,19.45
2022-08-19T04:50:28.523Z,17.88
2022-08-19T04:52:56.786Z,19.08
2022-08-19T04:55:26.267Z,20.33
2022-08-19T04:57:52.785Z,20.48
2022-08-19T05:00:19.432Z,20.38
2022-08-19T05:02:45.931Z,23.20
2022-08-19T05:05:13.426Z,23.05
2022-08-19T05:07:41.962Z,23.02
2022-08-19T05:10:09.026Z,23.10
2022-08-19T05:12:35.624Z,23.02
2022-08-19T05:15:07.863Z,23.58
2022-08-19T05:17:38.405Z,22.83
2022-08-19T05:20:26.724Z,21.77
2022-08-19T05:22:53.439Z,23.67
2022-08-19T05:25:22.353Z,23.45
2022-08-19T05:27:49.534Z,22.67
2022-08-19T05:30:17.762Z,24.13
2022-08-19T05:32:44.528Z,26.58
2022-08-19T05:35:12.549Z,24.80
2022-08-19T05:37:41.209Z,23.67
2022-08-19T05:40:09.987Z,23.67
2022-08-19T05:42:36.627Z,26.48
2022-08-19T05:45:05.331Z,27.98
2022-08-19T05:47:32.910Z,31.35
2022-08-19T05:49:59.778Z,26.25
2022-08-19T05:52:28.023Z,25.52
2022-08-19T05:54:56.759Z,25.38
2022-08-19T05:57:25.570Z,25.73
2022-08-19T05:59:58.026Z,22.52
2022-08-19T06:02:31.566Z,24.77
2022-08-19T06:04:58.513Z,24.02
2022-08-19T06:07:25.350Z,23.10
2022-08-19T06:09:59.951Z,21.75
2022-08-19T06:12:29.578Z,21.55
2022-08-19T06:15:01.113Z,21.42
2022-08-19T06:17:31.235Z,19.70
2022-08-19T06:19:59.161Z,20.55
2022-08-19T06:22:25.699Z,19.60
2022-08-19T06:24:54.476Z,18.17
2022-08-19T06:27:22.299Z,17.92
2022-08-19T06:29:49.078Z,18.92
2022-08-19T06:32:19.471Z,18.70
2022-08-19T06:34:46.467Z,20.08
2022-08-19T06:37:14.113Z,21.00
2022-08-19T06:39:44.104Z,21.80
2022-08-19T06:42:14.150Z,21.80
2022-08-19T06:44:48.333Z,21.45
2022-08-19T06:47:23.552Z,20.83
2022-08-19T06:50:05.210Z,19.33
2022-08-19T06:52:34.995Z,19.77
2022-08-19T06:55:05.884Z,19.85
2022-08-19T06:57:34.358Z,19.48
2022-08-19T07:00:01.106Z,18.35
2022-08-19T07:02:27.702Z,18.00
2022-08-19T07:04:54.655Z,17.90
2022-08-19T07:07:23.125Z,19.65
2022-08-19T07:09:59.866Z,19.38
2022-08-19T07:12:35.754Z,17.13
2022-08-19T07:15:05.768Z,15.38
2022-08-19T07:17:34.678Z,15.65
2022-08-19T07:20:05.037Z,15.27
2022-08-19T07:22:32.589Z,14.73
2022-08-19T07:24:59.091Z,15.18
2022-08-19T07:27:25.791Z,13.63
2022-08-19T07:29:55.731Z,15.40
2022-08-19T07:32:23.885Z,12.35
2022-08-19T07:34:50.528Z,12.60
2022-08-19T07:37:18.061Z,12.40
2022-08-19T07:39:44.766Z,15.80
2022-08-19T07:42:13.487Z,15.52
2022-08-19T07:44:41.528Z,14.32
2022-08-19T07:47:08.101Z,12.27
2022-08-19T07:49:55.164Z,12.20
2022-08-19T07:52:21.706Z,12.38
2022-08-19T07:54:48.259Z,12.32
2022-08-19T07:57:14.950Z,12.77
2022-08-19T07:59:41.644Z,15.27
2022-08-19T08:02:10.130Z,16.92
2022-08-19T08:04:55.496Z,14.18
2022-08-19T08:07:40.824Z,12.95
2022-08-19T08:10:20.715Z,15.13
2022-08-19T08:12:58.353Z,12.43
2022-08-19T08:15:41.343Z,20.63
2022-08-19T08:18:08.926Z,13.57
2022-08-19T08:20:36.037Z,15.48
2022-08-19T08:23:21.211Z,16.73
2022-08-19T08:25:49.396Z,21.67
2022-08-19T08:28:19.846Z,11.63
2022-08-19T08:30:48.956Z,13.23
2022-08-19T08:33:33.378Z,14.95
2022-08-19T08:36:08.450Z,14.95
2022-08-19T08:38:42.755Z,18.67
2022-08-19T08:41:22.911Z,15.10
2022-08-19T08:43:53.814Z,13.93
2022-08-19T08:46:43.571Z,11.73
2022-08-19T08:50:17.045Z,11.85
2022-08-19T08:52:52.058Z,22.02
2022-08-19T08:55:24.493Z,12.40
2022-08-19T08:58:02.816Z,13.82
2022-08-19T09:00:35.387Z,12.93
2022-08-19T09:03:07.009Z,11.48
2022-08-19T09:06:04.712Z,11.80
2022-08-19T09:08:51.104Z,9.70
2022-08-19T09:11:44.684Z,9.68
2022-08-19T09:14:52.036Z,11.70
2022-08-19T09:17:34.566Z,10.55
2022-08-19T09:20:19.967Z,19.70
2022-08-19T09:22:47.555Z,8.82
2022-08-19T09:25:26.666Z,9.55
2022-08-19T09:28:02.843Z,13.93
2022-08-19T09:30:35.078Z,10.00
2022-08-19T09:33:01.784Z,8.40
2022-08-19T09:35:30.921Z,8.02
2022-08-19T09:38:00.375Z,8.85
2022-08-19T09:40:35.408Z,9.32
2022-08-19T09:43:09.964Z,9.00
2022-08-19T09:45:36.783Z,7.00
2022-08-19T09:48:03.761Z,7.28
2022-08-19T09:50:39.272Z,6.57
2022-08-19T09:53:19.512Z,5.82
2022-08-19T09:55:46.133Z,7.15
2022-08-19T09:58:12.817Z,6.90
2022-08-19T10:00:39.794Z,7.05
2022-08-19T10:03:07.161Z,7.72
2022-08-19T10:05:50.186Z,6.20
2022-08-19T10:08:20.887Z,6.22
2022-08-19T10:10:49.128Z,5.75
2022-08-19T10:13:26.950Z,5.88
2022-08-19T10:15:57.119Z,6.28
2022-08-19T10:18:25.352Z,10.45
2022-08-19T10:20:54.442Z,9.85
2022-08-19T10:23:22.230Z,7.55
2022-08-19T10:25:50.519Z,8.35
2022-08-19T10:28:19.217Z,7.38
2022-08-19T10:30:47.438Z,7.05
2022-08-19T10:33:14.864Z,8.00
2022-08-19T10:35:42.697Z,8.13
2022-08-19T10:38:31.455Z,8.18
2022-08-19T10:41:07.440Z,8.23
2022-08-19T10:43:38.085Z,9.85
2022-08-19T10:46:14.140Z,18.05
2022-08-19T10:48:45.101Z,7.32
2022-08-19T10:51:31.694Z,6.43
2022-08-19T10:56:46.343Z,7.57
2022-08-19T10:59:14.775Z,8.15
2022-08-19T11:01:45.350Z,6.55
2022-08-19T11:04:14.643Z,6.30
2022-08-19T11:06:44.171Z,9.95
2022-08-19T11:09:12.168Z,7.15
2022-08-19T11:11:41.649Z,8.23
2022-08-19T11:14:15.319Z,7.82
2022-08-19T11:16:43.427Z,7.30
2022-08-19T11:19:12.772Z,7.05
2022-08-19T11:21:43.150Z,7.15
2022-08-19T11:24:15.733Z,6.88
2022-08-19T11:26:44.998Z,7.03
2022-08-19T11:29:14.203Z,7.03
2022-08-19T11:31:45.080Z,7.32
2022-08-19T11:34:17.908Z,5.80
2022-08-19T11:36:47.037Z,8.88
2022-08-19T11:39:17.405Z,6.70
2022-08-19T11:41:43.918Z,7.32
2022-08-19T11:44:11.072Z,11.40
2022-08-19T11:46:39.033Z,6.85
2022-08-19T11:49:13.234Z,8.55
2022-08-19T11:51:43.729Z,13.05
2022-08-19T11:54:12.337Z,6.00
2022-08-19T11:56:40.011Z,6.68
2022-08-19T11:59:12.765Z,6.57
2022-08-19T12:01:43.385Z,5.82
2022-08-19T12:04:10.714Z,7.07
2022-08-19T12:06:40.418Z,6.50
2022-08-19T12:09:10.490Z,7.00
2022-08-19T12:11:39.422Z,6.20
2022-08-19T12:14:06.006Z,7.15
2022-08-19T12:16:33.548Z,6.38
2022-08-19T12:19:04.757Z,7.03
2022-08-19T12:21:34.154Z,6.70
2022-08-19T12:24:02.867Z,7.28
2022-08-19T12:26:32.245Z,7.70
2022-08-19T12:29:00.409Z,6.45
2022-08-19T12:31:29.640Z,7.07
2022-08-19T12:33:56.728Z,6.68
2022-08-19T12:36:24.168Z,6.72
2022-08-19T12:38:50.771Z,7.88
2022-08-19T12:41:19.289Z,7.18
2022-08-19T12:43:46.580Z,7.93
2022-08-19T12:46:13.583Z,6.85
2022-08-19T12:48:43.508Z,6.82
2022-08-19T12:51:20.768Z,6.75
2022-08-19T12:53:48.618Z,15.68
2022-08-19T12:56:15.630Z,6.20
2022-08-19T12:58:48.667Z,5.35
2022-08-19T13:01:22.509Z,5.40
2022-08-19T13:03:51.167Z,6.13
2022-08-19T13:06:20.167Z,6.35
2022-08-19T13:08:47.215Z,6.63
2022-08-19T13:11:18.369Z,6.18
2022-08-19T13:13:49.380Z,6.63
2022-08-19T13:16:16.684Z,8.70
2022-08-19T13:18:51.238Z,7.85
2022-08-19T13:21:17.824Z,9.05
2022-08-19T13:23:47.923Z,8.25
2022-08-19T13:26:15.159Z,9.05
2022-08-19T13:29:01.230Z,7.40
2022-08-19T13:31:51.342Z,8.25
2022-08-19T13:34:26.014Z,7.57
2022-08-19T13:36:58.347Z,8.18
2022-08-19T13:39:25.091Z,7.88
2022-08-19T13:41:51.681Z,8.43
2022-08-19T13:44:20.936Z,7.75
2022-08-19T13:46:54.103Z,7.80
2022-08-19T13:49:21.317Z,7.40
2022-08-19T13:51:47.855Z,7.75
2022-08-19T13:54:14.462Z,7.80
2022-08-19T13:56:46.519Z,7.47
2022-08-19T13:59:13.662Z,7.95
2022-08-19T14:01:42.496Z,6.55
2022-08-19T14:04:09.747Z,7.85
2022-08-19T14:06:36.684Z,6.88
2022-08-19T14:09:04.118Z,6.65
2022-08-19T14:11:31.266Z,6.47
2022-08-19T14:13:57.867Z,6.63
2022-08-19T14:16:25.629Z,7.43
2022-08-19T14:18:52.461Z,7.38
2022-08-19T14:21:24.598Z,6.55
2022-08-19T14:23:52.835Z,6.22
2022-08-19T14:26:21.554Z,6.32
2022-08-19T14:28:48.558Z,6.30
2022-08-19T14:31:19.793Z,6.28
2022-08-19T14:33:48.644Z,6.25
2022-08-19T14:36:15.767Z,7.82
2022-08-19T14:38:43.334Z,6.65
2022-08-19T14:41:18.276Z,7.15
2022-08-19T14:43:50.731Z,7.38
2022-08-19T14:46:22.723Z,6.70
2022-08-19T14:48:51.894Z,6.15
2022-08-19T14:51:24.282Z,8.60
2022-08-19T14:53:51.599Z,6.10
2022-08-19T14:56:28.556Z,6.50
2022-08-19T14:58:56.187Z,6.68
2022-08-19T15:01:24.112Z,6.20
2022-08-19T15:03:55.724Z,6.40
2022-08-19T15:06:25.171Z,6.57
2022-08-19T15:08:52.655Z,6.18
2022-08-19T15:11:24.423Z,6.82
2022-08-19T15:13:51.678Z,6.18
2022-08-19T15:16:19.489Z,6.03
2022-08-19T15:18:50.621Z,6.43
2022-08-19T15:21:26.731Z,7.00
2022-08-19T15:23:57.528Z,6.85
2022-08-19T15:26:26.083Z,7.07
2022-08-19T15:28:53.007Z,6.90
2022-08-19T15:31:27.930Z,5.97
2022-08-19T15:33:58.541Z,6.88
2022-08-19T15:36:26.930Z,6.70
2022-08-19T15:38:53.735Z,5.97
2022-08-19T15:41:29.284Z,6.72
2022-08-19T15:44:10.490Z,6.75
2022-08-19T15:46:40.719Z,6.80
2022-08-19T15:49:07.907Z,6.82
2022-08-19T15:51:36.355Z,6.65
2022-08-19T15:54:07.363Z,6.35
2022-08-19T15:57:06.639Z,5.90
2022-08-19T15:59:54.500Z,6.25
2022-08-19T16:02:46.221Z,6.03
2022-08-19T16:05:37.613Z,5.90
2022-08-19T16:08:05.777Z,6.05
2022-08-19T16:10:32.435Z,5.82
2022-08-19T16:12:59.146Z,6.38
2022-08-19T16:15:28.959Z,6.13
2022-08-19T16:17:57.995Z,6.45
2022-08-19T16:20:27.275Z,6.13
2022-08-19T16:22:56.373Z,6.22
2022-08-19T16:25:27.418Z,6.28
2022-08-19T16:28:07.741Z,6.10
2022-08-19T16:30:39.851Z,6.60
2022-08-19T16:33:08.751Z,6.93
2022-08-19T16:35:35.853Z,6.53
2022-08-19T16:38:02.638Z,6.07
2022-08-19T16:40:29.645Z,6.40
2022-08-19T16:42:56.428Z,6.60
2022-08-19T16:45:23.285Z,6.78
2022-08-19T16:47:50.447Z,6.40
2022-08-19T16:50:22.355Z,7.10
2022-08-19T16:53:00.077Z,6.85
2022-08-19T16:55:28.249Z,6.95
2022-08-19T16:57:54.835Z,6.18
2022-08-19T17:00:21.511Z,6.75
2022-08-19T17:02:48.059Z,6.97
2022-08-19T17:05:14.932Z,6.90
2022-08-19T17:07:41.434Z,7.20
2022-08-19T17:10:09.079Z,6.88
2022-08-19T17:12:37.425Z,6.50
2022-08-19T17:15:08.229Z,6.10
2022-08-19T17:17:35.748Z,7.00
2022-08-19T17:20:03.249Z,6.80
2022-08-19T17:22:29.877Z,7.10
2022-08-19T17:24:58.084Z,6.57
2022-08-19T17:27:31.981Z,6.53
2022-08-19T17:30:00.183Z,6.60
2022-08-19T17:32:27.238Z,5.90
2022-08-19T17:34:54.232Z,6.40
2022-08-19T17:37:21.087Z,6.25
2022-08-19T17:39:47.674Z,5.72
2022-08-19T17:42:14.481Z,5.00
2022-08-19T17:44:40.987Z,5.43
2022-08-19T17:47:07.870Z,4.65
2022-08-19T17:49:34.698Z,4.85
2022-08-19T17:52:01.215Z,5.03
2022-08-19T17:54:28.260Z,5.65
2022-08-19T17:57:01.174Z,5.18
2022-08-19T17:59:30.051Z,5.57
2022-08-19T18:01:57.845Z,4.60
2022-08-19T18:04:26.264Z,4.55
2022-08-19T18:06:55.433Z,5.05
2022-08-19T18:09:28.583Z,4.82
2022-08-19T18:12:07.331Z,4.82
2022-08-19T18:14:37.766Z,5.38
2022-08-19T18:17:14.126Z,5.30
2022-08-19T18:19:44.068Z,5.40
2022-08-19T18:22:37.740Z,6.00
2022-08-19T18:25:26.731Z,4.65
2022-08-19T18:27:59.605Z,4.82
2022-08-19T18:30:34.373Z,4.97
2022-08-19T18:33:14.151Z,4.15
2022-08-19T18:35:48.575Z,5.07
2022-08-19T18:38:36.225Z,4.28
2022-08-19T18:41:23.064Z,4.25
2022-08-19T18:44:08.894Z,4.22
2022-08-19T18:46:54.551Z,3.70
2022-08-19T18:49:29.178Z,4.18
2022-08-19T18:51:58.088Z,4.75
2022-08-19T18:54:26.621Z,4.35
2022-08-19T18:56:55.647Z,4.50
2022-08-19T18:59:28.836Z,4.53
2022-08-19T19:01:58.280Z,4.38
2022-08-19T19:04:35.143Z,5.15
2022-08-19T19:07:01.708Z,4.20
2022-08-19T19:09:28.632Z,3.83
2022-08-19T19:12:01.782Z,4.35
2022-08-19T19:14:48.757Z,4.30
2022-08-19T19:17:16.126Z,4.35
2022-08-19T19:19:43.882Z,4.90
2022-08-19T19:22:21.207Z,4.55
2022-08-19T19:24:48.695Z,4.53
2022-08-19T19:27:20.167Z,4.88
2022-08-19T19:29:52.030Z,5.00
2022-08-19T19:32:29.388Z,4.47
2022-08-19T19:34:56.428Z,4.75
2022-08-19T19:37:23.072Z,5.25
2022-08-19T19:39:49.587Z,4.90
2022-08-19T19:42:21.386Z,4.65
2022-08-19T19:44:54.463Z,4.90
2022-08-19T19:47:28.330Z,4.40
2022-08-19T19:52:48.221Z,4.85
2022-08-19T19:55:19.994Z,4.10
2022-08-19T19:57:50.222Z,4.80
2022-08-19T20:00:18.911Z,4.22
2022-08-19T20:02:49.757Z,4.18
2022-08-19T20:05:17.316Z,4.38
2022-08-19T20:08:02.500Z,4.13
2022-08-19T20:10:29.619Z,4.10
2022-08-19T20:12:56.891Z,3.95
2022-08-19T20:15:24.077Z,4.00
2022-08-19T20:17:50.968Z,3.80
2022-08-19T20:20:19.185Z,3.30
2022-08-19T20:22:47.467Z,4.13
2022-08-19T20:25:18.861Z,4.25
2022-08-19T20:27:49.641Z,4.15
2022-08-19T20:30:20.516Z,4.70
2022-08-19T20:32:49.442Z,4.20
2022-08-19T20:35:19.795Z,3.83
2022-08-19T20:37:46.595Z,3.85
2022-08-19T20:40:14.305Z,3.95
2022-08-19T20:42:43.848Z,3.97
2022-08-19T20:45:29.470Z,3.60
2022-08-19T20:48:02.546Z,4.40
2022-08-19T20:50:30.112Z,3.78
2022-08-19T20:52:57.831Z,3.83
2022-08-19T20:55:26.102Z,4.07
2022-08-19T20:57:52.746Z,4.05
2022-08-19T21:00:19.739Z,4.30
2022-08-19T21:02:46.945Z,3.90
2022-08-19T21:05:13.746Z,4.10
2022-08-19T21:07:40.326Z,4.38
2022-08-19T21:10:07.591Z,4.20
2022-08-19T21:12:34.339Z,4.50
2022-08-19T21:15:00.847Z,4.07
2022-08-19T21:17:27.373Z,3.50
2022-08-19T21:19:53.947Z,3.80
2022-08-19T21:22:20.443Z,3.92
2022-08-19T21:24:46.974Z,3.60
2022-08-19T21:27:13.670Z,3.63
2022-08-19T21:29:41.992Z,3.78
2022-08-19T21:32:11.031Z,4.15
2022-08-19T21:34:43.954Z,3.83
2022-08-19T21:37:18.982Z,5.20
2022-08-19T21:39:52.087Z,3.90
2022-08-19T21:42:18.688Z,4.25
2022-08-19T21:44:45.960Z,3.78
2022-08-19T21:47:13.024Z,13.80
2022-08-19T21:49:39.934Z,4.43
2022-08-19T21:52:08.102Z,3.88
2022-08-19T21:54:38.109Z,6.50
2022-08-19T21:57:10.132Z,3.90
2022-08-19T21:59:43.621Z,6.53
2022-08-19T22:02:20.472Z,3.60
2022-08-19T22:04:48.703Z,4.88
2022-08-19T22:07:15.634Z,3.80
2022-08-19T22:09:45.235Z,4.18
2022-08-19T22:12:24.639Z,3.55
2022-08-19T22:14:53.019Z,4.30
2022-08-19T22:17:21.216Z,4.13
2022-08-19T22:19:48.978Z,3.88
2022-08-19T22:22:30.024Z,4.13
2022-08-19T22:25:12.326Z,4.65
2022-08-19T22:27:39.226Z,4.25
2022-08-19T22:30:13.990Z,5.60
2022-08-19T22:32:50.500Z,4.13
2022-08-19T22:35:25.205Z,3.88
2022-08-19T22:37:51.939Z,6.38
2022-08-19T22:40:20.293Z,4.80
2022-08-19T22:42:48.830Z,4.43
2022-08-19T22:45:17.515Z,4.25
2022-08-19T22:47:45.282Z,4.43
2022-08-19T22:50:13.756Z,3.85
2022-08-19T22:52:51.981Z,4.03
2022-08-19T22:55:19.269Z,4.45
2022-08-19T22:57:45.785Z,3.70
2022-08-19T23:00:13.565Z,4.40
2022-08-19T23:02:52.296Z,3.63
2022-08-19T23:05:22.393Z,3.78
2022-08-19T23:07:52.677Z,3.92
2022-08-19T23:10:27.423Z,3.58
2022-08-19T23:12:57.607Z,3.17
2022-08-19T23:15:31.045Z,3.40
2022-08-19T23:18:01.602Z,3.58
2022-08-19T23:20:34.837Z,4.95
2022-08-19T23:23:09.270Z,3.75
2022-08-19T23:25:37.862Z,3.97
2022-08-19T23:28:25.071Z,3.97
2022-08-19T23:30:53.339Z,3.80
2022-08-19T23:33:46.541Z,3.92
2022-08-19T23:36:17.661Z,3.40
2022-08-19T23:38:47.699Z,3.33
2022-08-19T23:41:17.036Z,3.47
2022-08-19T23:43:44.758Z,3.47
2022-08-19T23:46:14.979Z,3.33
2022-08-19T23:48:54.607Z,2.92
2022-08-19T23:51:23.643Z,3.40
2022-08-19T23:53:50.169Z,3.78
2022-08-19T23:56:16.743Z,3.40
2022-08-19T23:58:43.358Z,4.20
